Time;durP1;ratioP1;P1;durP2;ratioP2;P2;SDS_P1;SDS_P2;PMS_P1;PMS_P2;Temp;Humidity;BMP_temperature;BMP_pressure;BME280_temperature;BME280_humidity;BME280_pressure;Samples;Min_cycle;Max_cycle;Signal;HPM_P1;HPM_P2
2021/03/12 00:00:27;;;;;;;23.57;17.30;;;5.80;94.90;;;;;;6275596;28;20467;-61
2021/03/12 00:03:32;;;;;;;26.80;18.73;;;5.90;94.60;;;;;;6275216;28;20490;-59
2021/03/12 00:06:34;;;;;;;23.10;16.60;;;6.00;94.30;;;;;;6272992;28;20471;-63
2021/03/12 00:09:36;;;;;;;21.83;17.10;;;6.10;94.10;;;;;;6272527;28;20485;-60
2021/03/12 00:12:39;;;;;;;22.07;16.40;;;6.10;95.40;;;;;;6272698;28;20962;-60
2021/03/12 00:15:42;;;;;;;21.07;17.43;;;6.30;95.70;;;;;;6273310;28;20481;-61
2021/03/12 00:18:47;;;;;;;23.37;15.83;;;6.30;95.30;;;;;;6296491;28;20470;-61
2021/03/12 00:21:49;;;;;;;24.43;17.30;;;6.50;94.70;;;;;;6297102;28;21031;-60
2021/03/12 00:24:52;;;;;;;22.97;16.27;;;6.60;94.00;;;;;;6294495;28;20778;-60
2021/03/12 00:27:55;;;;;;;22.93;16.77;;;6.70;93.80;;;;;;6299932;28;20448;-61
2021/03/12 00:30:58;;;;;;;24.50;16.77;;;6.80;93.00;;;;;;6299500;28;20460;-61
2021/03/12 00:34:03;;;;;;;26.20;20.73;;;6.80;92.40;;;;;;6298826;28;20434;-61
2021/03/12 00:37:05;;;;;;;26.60;20.93;;;6.80;92.20;;;;;;6298723;28;20476;-61
2021/03/12 00:40:11;;;;;;;28.13;21.47;;;6.70;92.20;;;;;;6298598;28;20437;-61
2021/03/12 00:43:14;;;;;;;26.47;20.50;;;6.70;92.20;;;;;;6298573;28;20533;-61
2021/03/12 00:46:17;;;;;;;26.80;21.67;;;6.60;92.20;;;;;;6298150;28;20548;-61
2021/03/12 00:49:21;;;;;;;25.17;19.97;;;6.60;92.20;;;;;;6299602;28;20469;-60
2021/03/12 00:52:23;;;;;;;26.53;19.87;;;6.60;92.10;;;;;;6299877;28;20473;-61
2021/03/12 00:55:25;;;;;;;25.30;19.33;;;6.60;92.20;;;;;;6299772;28;20475;-61
2021/03/12 00:58:27;;;;;;;23.47;19.20;;;6.60;92.30;;;;;;6299496;28;20999;-62
2021/03/12 01:01:30;;;;;;;23.77;18.57;;;6.70;92.30;;;;;;6299789;28;20480;-61
2021/03/12 01:04:33;;;;;;;22.73;18.03;;;6.70;92.60;;;;;;6299915;28;20471;-61
2021/03/12 01:07:36;;;;;;;25.13;18.97;;;6.80;92.00;;;;;;6299640;28;20480;-62
2021/03/12 01:10:39;;;;;;;23.30;17.63;;;6.80;92.00;;;;;;6299519;28;20469;-62
2021/03/12 01:13:41;;;;;;;28.10;20.00;;;6.90;92.50;;;;;;6300010;28;20461;-62
2021/03/12 01:16:44;;;;;;;25.50;20.00;;;6.80;92.30;;;;;;6299368;28;20473;-61
2021/03/12 01:19:47;;;;;;;29.13;21.27;;;6.90;92.70;;;;;;6299503;28;20790;-61
2021/03/12 01:22:51;;;;;;;25.47;22.10;;;6.80;93.10;;;;;;6298916;28;20489;-62
2021/03/12 01:25:53;;;;;;;27.83;20.23;;;6.80;93.00;;;;;;6299165;28;20473;-62
2021/03/12 01:28:55;;;;;;;25.57;18.10;;;6.80;93.00;;;;;;6290133;28;20488;-62
2021/03/12 01:31:58;;;;;;;23.47;19.43;;;6.80;93.10;;;;;;6298989;28;20474;-61
2021/03/12 01:35:01;;;;;;;22.63;19.17;;;6.80;93.20;;;;;;6299246;28;20492;-61
2021/03/12 01:38:03;;;;;;;24.17;19.27;;;6.90;93.50;;;;;;6299219;28;20480;-62
2021/03/12 01:41:05;;;;;;;23.73;18.10;;;6.80;93.50;;;;;;6299346;28;20495;-63
2021/03/12 01:44:08;;;;;;;23.00;19.80;;;6.80;93.80;;;;;;6299797;28;20484;-62
2021/03/12 01:47:11;;;;;;;31.27;24.10;;;6.80;94.20;;;;;;6303789;28;20473;-62
2021/03/12 01:50:15;;;;;;;32.27;26.00;;;6.50;94.50;;;;;;6303967;28;20465;-62
2021/03/12 01:53:21;;;;;;;31.47;26.20;;;6.20;95.10;;;;;;6303995;28;20473;-61
2021/03/12 01:56:23;;;;;;;34.63;26.63;;;6.20;95.40;;;;;;6303344;28;20560;-61
2021/03/12 01:59:26;;;;;;;36.40;27.63;;;6.10;95.90;;;;;;6303911;28;20980;-61
2021/03/12 02:02:29;;;;;;;35.00;26.67;;;6.00;96.10;;;;;;6303855;28;20489;-61
2021/03/12 02:05:32;;;;;;;39.77;28.73;;;6.00;96.50;;;;;;6303564;28;20958;-61
2021/03/12 02:08:35;;;;;;;42.67;26.97;;;6.00;96.80;;;;;;6303741;28;20469;-61
2021/03/12 02:11:38;;;;;;;36.80;27.67;;;5.90;97.20;;;;;;6303250;28;20480;-61
2021/03/12 02:14:48;;;;;;;36.20;26.30;;;5.90;97.90;;;;;;6302869;28;20894;-61
2021/03/12 02:17:59;;;;;;;37.47;25.10;;;5.60;98.30;;;;;;6303261;28;20465;-61
2021/03/12 02:21:09;;;;;;;39.00;28.10;;;5.70;98.90;;;;;;6303450;28;20466;-61
2021/03/12 02:24:20;;;;;;;35.60;26.20;;;5.90;99.10;;;;;;6302896;28;20465;-61
2021/03/12 02:27:25;;;;;;;35.83;28.07;;;5.90;99.20;;;;;;6303053;28;20541;-61
2021/03/12 02:30:28;;;;;;;33.93;25.70;;;6.00;99.20;;;;;;6302956;28;20552;-61
2021/03/12 02:33:32;;;;;;;35.60;27.47;;;6.10;99.50;;;;;;6302719;28;20622;-61
2021/03/12 02:36:38;;;;;;;30.63;24.77;;;6.20;99.80;;;;;;6302350;28;20473;-61
2021/03/12 02:39:46;;;;;;;30.13;24.73;;;6.20;99.70;;;;;;6302590;28;20488;-61
2021/03/12 02:42:49;;;;;;;31.77;24.20;;;6.20;99.80;;;;;;6302510;28;20470;-61
2021/03/12 02:45:53;;;;;;;29.40;23.50;;;6.30;99.80;;;;;;6302408;28;20458;-61
2021/03/12 02:48:57;;;;;;;35.50;25.60;;;6.30;99.80;;;;;;6302881;28;20451;-61
2021/03/12 02:51:59;;;;;;;36.07;25.43;;;6.30;99.80;;;;;;6302371;28;20441;-62
2021/03/12 02:55:02;;;;;;;29.13;26.00;;;6.30;99.80;;;;;;6301967;28;20477;-61
2021/03/12 02:58:06;;;;;;;29.13;24.33;;;6.30;99.80;;;;;;6301203;28;20442;-61
2021/03/12 03:01:12;;;;;;;33.40;27.23;;;6.30;99.80;;;;;;6302440;28;20549;-62
2021/03/12 03:04:15;;;;;;;34.37;25.13;;;6.20;99.80;;;;;;6302016;28;20449;-61
2021/03/12 03:07:19;;;;;;;42.80;27.80;;;6.20;99.90;;;;;;6301929;28;20544;-61
2021/03/12 03:10:24;;;;;;;35.17;27.53;;;6.00;99.90;;;;;;6301937;28;20465;-61
2021/03/12 03:13:30;;;;;;;36.30;26.60;;;6.00;99.90;;;;;;6301941;28;20476;-61
2021/03/12 03:16:36;;;;;;;38.80;27.20;;;5.90;99.90;;;;;;6301587;28;20474;-61
2021/03/12 03:19:43;;;;;;;31.70;27.00;;;5.90;99.90;;;;;;6301659;28;20466;-61
2021/03/12 03:22:46;;;;;;;39.80;27.53;;;5.90;99.90;;;;;;6301603;28;20568;-61
2021/03/12 03:25:48;;;;;;;33.50;25.20;;;5.90;99.90;;;;;;6301253;28;20487;-60
2021/03/12 03:28:52;;;;;;;31.13;25.93;;;5.90;99.90;;;;;;6301384;28;20473;-62
2021/03/12 03:31:54;;;;;;;29.57;24.47;;;6.00;99.90;;;;;;6301278;28;20987;-62
2021/03/12 03:34:57;;;;;;;29.27;23.50;;;5.90;99.90;;;;;;6300998;28;20485;-62
2021/03/12 03:38:00;;;;;;;24.63;21.93;;;5.90;99.90;;;;;;6301315;28;20471;-61
2021/03/12 03:41:04;;;;;;;28.23;22.47;;;5.80;99.90;;;;;;6300902;28;20470;-61
2021/03/12 03:44:09;;;;;;;26.77;21.83;;;5.80;99.90;;;;;;6301034;28;20473;-61
2021/03/12 03:47:12;;;;;;;28.70;22.60;;;5.80;99.90;;;;;;6301045;28;20478;-61
2021/03/12 03:50:16;;;;;;;27.60;23.23;;;5.80;99.90;;;;;;6300685;28;20546;-61
2021/03/12 03:53:19;;;;;;;25.77;22.07;;;5.80;99.90;;;;;;6300946;28;20465;-61
2021/03/12 03:56:21;;;;;;;27.87;21.37;;;5.80;99.90;;;;;;6300382;28;20796;-62
2021/03/12 03:59:25;;;;;;;32.00;23.17;;;5.80;99.90;;;;;;6301101;28;20496;-61
2021/03/12 04:02:28;;;;;;;26.17;20.87;;;5.90;99.90;;;;;;6300007;28;20487;-62
2021/03/12 04:05:31;;;;;;;24.80;20.03;;;5.70;99.90;;;;;;6300220;28;20481;-61
2021/03/12 04:08:35;;;;;;;26.10;21.13;;;5.90;99.90;;;;;;6300735;28;20469;-61
2021/03/12 04:11:37;;;;;;;23.70;19.53;;;6.00;99.90;;;;;;6300490;28;20465;-62
2021/03/12 04:14:42;;;;;;;22.33;17.53;;;6.00;99.90;;;;;;6300334;28;20987;-61
2021/03/12 04:17:45;;;;;;;25.10;18.10;;;6.10;99.90;;;;;;6300349;28;20474;-61
2021/03/12 04:20:48;;;;;;;18.77;15.10;;;6.20;99.90;;;;;;6300532;28;20477;-61
2021/03/12 04:23:52;;;;;;;24.10;18.10;;;6.30;99.90;;;;;;6300104;28;20477;-62
2021/03/12 04:26:55;;;;;;;18.40;15.40;;;6.40;99.90;;;;;;6299944;28;20488;-62
2021/03/12 04:29:58;;;;;;;19.30;16.87;;;6.40;99.90;;;;;;6300034;28;20473;-62
2021/03/12 04:33:03;;;;;;;18.17;16.23;;;6.40;99.90;;;;;;6299812;28;20477;-62
2021/03/12 04:36:06;;;;;;;22.37;17.33;;;6.40;99.90;;;;;;6300074;28;20492;-62
2021/03/12 04:39:09;;;;;;;18.33;16.33;;;6.50;99.90;;;;;;6300319;28;20477;-61
2021/03/12 04:42:12;;;;;;;22.77;17.43;;;6.50;99.90;;;;;;6290182;28;20470;-61
2021/03/12 04:45:33;;;;;;;21.70;17.23;;;6.50;99.90;;;;;;6299888;28;20476;-62
2021/03/12 04:48:37;;;;;;;20.77;17.13;;;6.50;99.90;;;;;;6299700;28;20791;-61
2021/03/12 04:51:43;;;;;;;22.63;17.33;;;6.40;99.90;;;;;;6299729;28;20473;-62
2021/03/12 04:54:46;;;;;;;20.13;17.90;;;6.30;99.90;;;;;;6299454;28;20953;-62
2021/03/12 04:57:50;;;;;;;23.10;16.30;;;6.20;99.90;;;;;;6299586;28;20519;-62
2021/03/12 05:00:54;;;;;;;22.70;16.83;;;6.20;99.90;;;;;;6299806;28;20476;-62
2021/03/12 05:03:57;;;;;;;18.00;16.10;;;6.20;99.90;;;;;;6299837;28;20452;-61
2021/03/12 05:06:59;;;;;;;20.90;17.93;;;6.20;99.90;;;;;;6300179;28;20914;-62
2021/03/12 05:10:04;;;;;;;23.30;18.17;;;6.20;99.90;;;;;;6299705;28;20468;-64
2021/03/12 05:13:06;;;;;;;22.10;17.30;;;6.10;99.90;;;;;;6299649;28;20445;-61
2021/03/12 05:16:09;;;;;;;24.27;17.20;;;6.00;99.90;;;;;;6299157;28;20481;-61
2021/03/12 05:19:11;;;;;;;20.63;16.70;;;6.00;99.90;;;;;;6300592;28;20974;-61
2021/03/12 05:22:13;;;;;;;22.00;17.30;;;6.00;99.90;;;;;;6304761;28;20457;-61
2021/03/12 05:25:16;;;;;;;20.60;16.53;;;5.90;99.90;;;;;;6305029;28;20461;-62
2021/03/12 05:28:18;;;;;;;25.23;20.40;;;5.90;99.90;;;;;;6304473;28;20820;-62
2021/03/12 05:31:24;;;;;;;27.87;17.53;;;5.80;99.90;;;;;;6304707;28;20476;-62
2021/03/12 05:34:26;;;;;;;22.83;17.43;;;5.70;99.90;;;;;;6304158;28;20465;-61
2021/03/12 05:37:28;;;;;;;22.80;16.30;;;5.60;99.90;;;;;;6304534;28;20456;-62
2021/03/12 05:40:31;;;;;;;24.60;16.80;;;5.70;99.90;;;;;;6304518;28;20809;-62
2021/03/12 05:43:34;;;;;;;20.10;17.50;;;5.70;99.90;;;;;;6300165;28;20465;-62
2021/03/12 05:46:39;;;;;;;20.03;16.43;;;5.70;99.90;;;;;;6303868;28;20474;-61
2021/03/12 05:49:43;;;;;;;22.10;17.27;;;5.80;99.90;;;;;;6304296;28;20469;-62
2021/03/12 05:52:46;;;;;;;20.93;16.70;;;5.70;99.90;;;;;;6303857;28;20473;-62
2021/03/12 05:55:49;;;;;;;22.90;16.73;;;5.70;99.90;;;;;;6303862;28;20465;-61
2021/03/12 05:58:51;;;;;;;17.10;15.10;;;5.70;99.90;;;;;;6303655;28;20473;-62
2021/03/12 06:01:54;;;;;;;18.43;16.30;;;5.70;99.90;;;;;;6303730;28;20487;-61
2021/03/12 06:04:57;;;;;;;18.87;15.63;;;5.70;99.90;;;;;;6303499;28;20539;-62
2021/03/12 06:07:59;;;;;;;21.73;15.70;;;5.80;99.90;;;;;;6303420;28;20469;-62
2021/03/12 06:11:01;;;;;;;20.00;15.50;;;5.80;99.90;;;;;;6303495;28;20475;-62
2021/03/12 06:14:04;;;;;;;20.00;15.57;;;5.90;99.90;;;;;;6303304;28;20469;-62
2021/03/12 06:17:07;;;;;;;19.57;15.80;;;6.00;99.90;;;;;;6302686;28;20473;-62
2021/03/12 06:20:11;;;;;;;17.73;15.17;;;6.00;99.90;;;;;;6302831;28;20484;-62
2021/03/12 06:23:13;;;;;;;17.93;15.00;;;6.00;99.90;;;;;;6302880;28;20488;-61
2021/03/12 06:26:15;;;;;;;22.47;17.23;;;6.10;99.90;;;;;;6302651;28;20956;-62
2021/03/12 06:29:17;;;;;;;18.67;15.50;;;6.10;99.90;;;;;;6302707;28;20488;-62
2021/03/12 06:32:35;;;;;;;17.70;15.33;;;6.20;99.90;;;;;;6302520;28;20814;-62
2021/03/12 06:35:39;;;;;;;18.57;16.10;;;6.30;99.90;;;;;;6302466;28;20481;-62
2021/03/12 06:38:55;;;;;;;17.87;14.90;;;6.40;99.90;;;;;;6302632;28;20473;-62
2021/03/12 06:41:57;;;;;;;17.80;15.33;;;6.40;99.90;;;;;;6302514;28;20480;-61
2021/03/12 06:45:02;;;;;;;17.57;14.20;;;6.40;99.90;;;;;;6302001;28;20474;-61
2021/03/12 06:48:16;;;;;;;20.73;15.37;;;6.50;99.90;;;;;;6302429;28;20469;-62
2021/03/12 06:51:18;;;;;;;20.47;15.83;;;6.60;99.90;;;;;;6302155;28;20496;-62
2021/03/12 06:54:20;;;;;;;15.40;13.83;;;6.70;99.90;;;;;;6302557;28;20630;-62
2021/03/12 06:57:23;;;;;;;19.93;15.90;;;6.80;99.90;;;;;;6301972;28;20473;-61
2021/03/12 07:00:32;;;;;;;19.90;14.90;;;6.80;99.90;;;;;;6302007;28;20473;-62
2021/03/12 07:03:35;;;;;;;20.47;15.20;;;6.90;99.90;;;;;;6301909;28;20503;-61
2021/03/12 07:06:44;;;;;;;18.67;14.83;;;7.00;99.90;;;;;;6301901;28;20519;-62
2021/03/12 07:09:57;;;;;;;17.13;14.23;;;7.00;99.90;;;;;;6302086;28;20470;-62
2021/03/12 07:13:00;;;;;;;19.07;14.20;;;7.20;99.90;;;;;;6301356;28;20847;-62
2021/03/12 07:16:05;;;;;;;14.20;11.97;;;7.30;99.90;;;;;;6301519;28;20482;-62
2021/03/12 07:19:09;;;;;;;16.40;12.27;;;7.50;99.90;;;;;;6301490;28;20472;-60
2021/03/12 07:22:14;;;;;;;15.00;12.50;;;7.80;99.90;;;;;;6301498;28;20446;-62
2021/03/12 07:25:19;;;;;;;17.20;13.17;;;8.00;99.80;;;;;;6301414;28;20473;-61
2021/03/12 07:28:23;;;;;;;13.90;11.40;;;8.30;99.40;;;;;;6301396;28;20461;-60
2021/03/12 07:31:32;;;;;;;17.80;12.10;;;8.70;98.90;;;;;;6300996;28;20480;-61
2021/03/12 07:34:37;;;;;;;13.83;11.80;;;10.60;96.90;;;;;;6301152;28;20469;-62
2021/03/12 07:37:39;;;;;;;12.80;10.87;;;14.00;89.60;;;;;;6300309;28;20559;-62
2021/03/12 07:40:41;;;;;;;11.40;10.23;;;17.40;72.10;;;;;;6299843;28;20465;-62
2021/03/12 07:43:45;;;;;;;14.80;11.03;;;19.20;56.80;;;;;;6299368;28;20797;-62
2021/03/12 07:46:50;;;;;;;10.30;9.20;;;18.40;54.00;;;;;;6300487;28;20473;-62
2021/03/12 07:49:54;;;;;;;11.80;10.33;;;16.90;55.50;;;;;;6299758;28;20797;-62
2021/03/12 07:52:57;;;;;;;10.50;7.93;;;16.00;57.20;;;;;;6290193;28;20983;-63
2021/03/12 07:55:59;;;;;;;8.40;6.00;;;15.50;58.90;;;;;;6299508;28;20476;-63
2021/03/12 07:59:01;;;;;;;6.50;5.80;;;17.00;57.40;;;;;;6300100;28;20544;-62
2021/03/12 08:02:07;;;;;;;6.40;5.80;;;20.50;51.10;;;;;;6298680;28;20969;-62
2021/03/12 08:05:33;;;;;;;5.40;4.90;;;24.10;43.30;;;;;;6296547;28;20230;-66
2021/03/12 08:08:36;;;;;;;5.20;4.70;;;26.90;33.90;;;;;;6299379;28;20231;-63
2021/03/12 08:11:53;;;;;;;4.73;4.30;;;28.60;30.30;;;;;;6300029;28;20230;-62
2021/03/12 08:15:11;;;;;;;5.30;4.33;;;30.40;27.30;;;;;;6300637;28;20254;-64
2021/03/12 08:18:24;;;;;;;5.40;3.87;;;31.90;25.30;;;;;;6299446;28;20672;-65
2021/03/12 08:21:35;;;;;;;4.38;3.97;;;33.20;23.50;;;;;;6299123;28;20374;-64
2021/03/12 08:24:52;;;;;;;12.18;11.18;;;34.00;22.40;;;;;;6299874;28;20256;-65
2021/03/12 08:27:55;;;;;;;12.05;11.00;;;34.10;22.80;;;;;;6300434;28;20222;-63
2021/03/12 08:30:59;;;;;;;7.85;7.03;;;32.40;24.40;;;;;;6300231;28;20210;-63
2021/03/12 08:34:41;;;;;;;7.65;6.93;;;32.50;23.20;;;;;;6299747;28;20654;-63
2021/03/12 08:37:45;;;;;;;10.38;7.68;;;34.50;22.20;;;;;;6300171;28;20234;-64
2021/03/12 08:40:55;;;;;;;11.75;10.85;;;36.40;20.90;;;;;;6299714;28;20233;-63
2021/03/12 08:44:00;;;;;;;11.00;10.00;;;37.90;20.60;;;;;;6276821;28;20227;-63
2021/03/12 08:47:02;;;;;;;16.90;15.40;;;38.20;19.80;;;;;;6281525;28;20585;-63
2021/03/12 08:50:06;;;;;;;15.90;14.63;;;36.40;20.70;;;;;;6300204;28;20351;-63
2021/03/12 08:53:13;;;;;;;16.10;14.82;;;37.00;20.90;;;;;;6281315;28;20237;-63
2021/03/12 08:56:22;;;;;;;19.00;17.55;;;37.70;20.50;;;;;;6269799;28;20742;-64
2021/03/12 08:59:27;;;;;;;17.88;16.30;;;36.40;21.20;;;;;;6274444;28;20574;-63
2021/03/12 09:02:30;;;;;;;16.55;15.25;;;35.90;21.70;;;;;;6298948;28;20607;-64
2021/03/12 09:05:32;;;;;;;17.85;16.20;;;36.40;21.20;;;;;;6299388;28;20311;-65
2021/03/12 09:08:38;;;;;;;16.55;15.32;;;37.50;20.50;;;;;;6299466;28;20257;-62
2021/03/12 09:11:40;;;;;;;16.88;15.57;;;37.00;20.60;;;;;;6299371;28;20226;-64
2021/03/12 09:14:42;;;;;;;16.45;15.13;;;37.20;20.30;;;;;;6299091;28;20234;-62
2021/03/12 09:17:45;;;;;;;15.90;14.40;;;35.80;20.50;;;;;;6289423;28;20231;-62
2021/03/12 09:20:50;;;;;;;15.25;13.75;;;34.30;22.20;;;;;;6274217;28;20288;-63
2021/03/12 09:23:55;;;;;;;14.10;12.98;;;36.10;21.20;;;;;;6274260;28;20254;-61
2021/03/12 09:26:57;;;;;;;12.40;11.50;;;36.40;20.10;;;;;;6275288;28;20235;-61
2021/03/12 09:29:59;;;;;;;12.43;11.40;;;36.10;20.20;;;;;;6298225;28;20253;-62
2021/03/12 09:33:05;;;;;;;13.98;12.80;;;36.40;20.40;;;;;;6298515;28;20283;-62
2021/03/12 09:36:28;;;;;;;12.65;11.57;;;37.40;19.70;;;;;;6296915;28;20221;-61
2021/03/12 09:39:31;;;;;;;12.40;11.38;;;37.90;19.00;;;;;;6295552;28;20312;-61
2021/03/12 09:42:34;;;;;;;11.75;10.82;;;37.20;19.30;;;;;;6298641;28;20226;-64
2021/03/12 09:45:37;;;;;;;12.07;9.82;;;38.60;19.00;;;;;;6287361;28;20231;-64
2021/03/12 09:48:39;;;;;;;11.32;10.23;;;39.50;18.40;;;;;;6283886;28;20226;-64
2021/03/12 09:51:45;;;;;;;10.90;10.00;;;40.90;17.50;;;;;;6298148;28;20237;-63
2021/03/12 09:54:50;;;;;;;8.40;7.80;;;41.50;16.90;;;;;;6274219;28;20246;-67
2021/03/12 09:57:53;;;;;;;7.43;6.82;;;41.70;16.40;;;;;;6273788;28;20227;-64
2021/03/12 10:01:11;;;;;;;7.53;7.00;;;41.50;15.90;;;;;;6279580;28;20300;-63
2021/03/12 10:04:23;;;;;;;6.00;5.50;;;42.10;15.70;;;;;;6298898;28;20187;-62
2021/03/12 10:07:37;;;;;;;4.20;3.97;;;42.40;15.10;;;;;;6303025;28;20235;-64
2021/03/12 10:10:40;;;;;;;4.20;3.83;;;43.40;13.80;;;;;;6302882;28;20565;-63
2021/03/12 10:13:54;;;;;;;4.18;3.78;;;44.50;13.70;;;;;;6295927;28;20220;-63
2021/03/12 10:17:12;;;;;;;4.43;4.13;;;44.70;13.40;;;;;;6285578;28;20238;-64
2021/03/12 10:20:24;;;;;;;3.92;3.63;;;43.70;13.20;;;;;;6278092;28;20227;-65
2021/03/12 10:23:27;;;;;;;5.20;4.35;;;41.90;14.00;;;;;;6295536;28;20663;-64
2021/03/12 10:26:30;;;;;;;4.60;4.20;;;42.80;14.00;;;;;;6302409;28;20682;-63
2021/03/12 10:29:37;;;;;;;4.40;4.05;;;43.70;13.70;;;;;;6302558;28;20250;-63
2021/03/12 10:32:43;;;;;;;3.85;3.40;;;41.50;13.80;;;;;;6278709;28;20230;-62
2021/03/12 10:35:47;;;;;;;4.40;4.00;;;38.70;15.10;;;;;;6277708;28;20235;-62
2021/03/12 10:38:50;;;;;;;4.13;3.83;;;38.40;15.60;;;;;;6278217;28;20227;-63
2021/03/12 10:42:04;;;;;;;4.70;3.53;;;38.50;15.30;;;;;;6277688;28;20314;-64
2021/03/12 10:45:08;;;;;;;4.35;3.95;;;38.90;15.40;;;;;;6277537;28;20239;-64
2021/03/12 10:48:10;;;;;;;4.10;3.70;;;38.40;15.40;;;;;;6288017;28;20709;-63
2021/03/12 10:51:36;;;;;;;4.10;3.70;;;37.40;16.10;;;;;;6295580;28;20261;-63
2021/03/12 10:54:38;;;;;;;5.32;4.57;;;36.80;16.50;;;;;;6277124;28;20380;-63
2021/03/12 10:57:46;;;;;;;4.38;4.07;;;36.90;16.50;;;;;;6276862;28;20227;-62
2021/03/12 11:01:06;;;;;;;3.95;3.72;;;36.70;16.70;;;;;;6277118;28;20313;-64
2021/03/12 11:04:13;;;;;;;4.78;4.28;;;35.40;17.20;;;;;;6271998;28;20225;-65
2021/03/12 11:07:16;;;;;;;4.65;4.25;;;34.70;17.60;;;;;;6292377;28;20269;-64
2021/03/12 11:10:20;;;;;;;4.85;4.20;;;33.40;18.50;;;;;;6278462;28;20227;-61
2021/03/12 11:13:23;;;;;;;6.75;4.22;;;32.70;18.90;;;;;;6289517;28;20667;-63
2021/03/12 11:16:26;;;;;;;4.00;3.60;;;30.50;20.10;;;;;;6300703;28;20230;-62
2021/03/12 11:19:28;;;;;;;4.37;3.97;;;28.40;22.30;;;;;;6301006;28;20233;-65
2021/03/12 11:22:30;;;;;;;3.87;3.57;;;27.30;22.90;;;;;;6287536;28;20314;-62
2021/03/12 11:25:33;;;;;;;3.73;3.43;;;25.10;24.90;;;;;;6275978;28;20227;-62
2021/03/12 11:28:36;;;;;;;3.97;3.50;;;23.50;26.30;;;;;;6277120;28;20231;-62
2021/03/12 11:31:40;;;;;;;6.43;3.63;;;21.90;27.70;;;;;;6276487;28;20269;-62
2021/03/12 11:34:42;;;;;;;3.90;3.50;;;20.60;29.20;;;;;;6276332;28;20227;-62
2021/03/12 11:37:44;;;;;;;3.70;3.40;;;18.80;31.50;;;;;;6275896;28;20231;-63
2021/03/12 11:40:48;;;;;;;3.40;2.70;;;17.90;34.10;;;;;;6276031;28;20611;-64
2021/03/12 11:43:51;;;;;;;3.00;2.70;;;18.00;34.20;;;;;;6276564;28;20223;-63
2021/03/12 11:46:53;;;;;;;3.47;3.13;;;18.20;33.80;;;;;;6275695;28;20588;-63
2021/03/12 11:49:56;;;;;;;4.00;3.20;;;18.30;34.10;;;;;;6276236;28;20470;-64
2021/03/12 11:52:58;;;;;;;5.00;3.70;;;18.30;34.00;;;;;;6275804;28;20310;-64
2021/03/12 11:56:00;;;;;;;5.17;3.70;;;18.00;34.90;;;;;;6275298;28;20555;-63
2021/03/12 11:59:04;;;;;;;4.27;3.33;;;17.90;35.60;;;;;;6275548;28;20962;-65
2021/03/12 12:02:07;;;;;;;4.33;3.93;;;18.20;35.50;;;;;;6275848;28;20532;-63
2021/03/12 12:05:11;;;;;;;5.23;4.30;;;18.70;34.80;;;;;;6286117;28;20502;-62
2021/03/12 12:08:14;;;;;;;4.63;4.17;;;18.80;34.60;;;;;;6295805;28;20501;-64
2021/03/12 12:11:16;;;;;;;5.33;4.83;;;18.50;35.10;;;;;;6298819;28;20407;-64
2021/03/12 12:14:20;;;;;;;6.53;5.83;;;18.40;34.90;;;;;;6298847;28;20214;-62
2021/03/12 12:17:23;;;;;;;6.10;5.50;;;18.40;35.70;;;;;;6299520;28;20466;-63
2021/03/12 12:20:25;;;;;;;7.63;6.73;;;18.60;36.10;;;;;;6295423;28;20222;-62
2021/03/12 12:23:27;;;;;;;8.73;6.37;;;18.60;36.00;;;;;;6298622;28;20480;-63
2021/03/12 12:26:31;;;;;;;6.27;5.67;;;18.40;36.20;;;;;;6298885;28;20472;-61
2021/03/12 12:29:34;;;;;;;6.70;6.07;;;18.10;37.00;;;;;;6298348;28;20568;-62
2021/03/12 12:32:38;;;;;;;6.60;5.33;;;17.90;37.10;;;;;;6298399;28;20968;-62
2021/03/12 12:35:40;;;;;;;6.63;5.17;;;17.30;37.70;;;;;;6297231;28;20523;-63
2021/03/12 12:38:43;;;;;;;5.90;5.30;;;17.30;37.80;;;;;;6299272;28;20468;-62
2021/03/12 12:41:46;;;;;;;6.67;5.10;;;17.80;37.20;;;;;;6298735;28;21010;-62
2021/03/12 12:44:50;;;;;;;5.13;4.70;;;18.50;36.00;;;;;;6299064;28;20488;-61
2021/03/12 12:47:53;;;;;;;5.87;5.27;;;18.70;35.00;;;;;;6299020;28;20379;-63
2021/03/12 12:50:55;;;;;;;6.93;4.93;;;18.50;35.50;;;;;;6294751;28;20706;-62
2021/03/12 12:53:57;;;;;;;5.83;5.33;;;19.20;35.10;;;;;;6274637;28;20249;-61
2021/03/12 12:57:00;;;;;;;5.83;5.23;;;20.30;33.70;;;;;;6274195;28;20246;-62
2021/03/12 13:00:05;;;;;;;9.73;6.83;;;21.30;32.00;;;;;;6274743;28;20242;-63
2021/03/12 13:03:07;;;;;;;6.10;5.17;;;22.10;30.60;;;;;;6274604;28;20292;-64
2021/03/12 13:06:10;;;;;;;6.10;5.60;;;23.60;29.50;;;;;;6274531;28;20235;-63
2021/03/12 13:09:12;;;;;;;5.97;5.30;;;24.60;28.20;;;;;;6274185;28;20297;-62
2021/03/12 13:12:15;;;;;;;5.50;5.00;;;24.00;28.20;;;;;;6269757;28;20234;-62
2021/03/12 13:15:19;;;;;;;7.00;5.60;;;23.30;28.60;;;;;;6273878;28;20245;-62
2021/03/12 13:18:21;;;;;;;5.73;5.10;;;22.00;29.40;;;;;;6274134;28;20253;-62
2021/03/12 13:21:23;;;;;;;6.93;6.27;;;21.20;30.60;;;;;;6277279;28;20233;-62
2021/03/12 13:24:26;;;;;;;6.37;5.77;;;20.20;31.90;;;;;;6298929;28;20377;-62
2021/03/12 13:27:35;;;;;;;6.10;5.50;;;20.60;32.20;;;;;;6298596;28;20632;-63
2021/03/12 13:30:38;;;;;;;5.80;5.30;;;21.80;31.00;;;;;;6299034;28;20254;-63
2021/03/12 13:33:41;;;;;;;5.63;5.07;;;23.00;29.80;;;;;;6298948;28;20240;-61
2021/03/12 13:36:43;;;;;;;6.30;5.70;;;23.40;29.20;;;;;;6298727;28;20249;-61
2021/03/12 13:39:46;;;;;;;7.60;6.90;;;23.20;29.20;;;;;;6299116;28;20237;-62
2021/03/12 13:42:50;;;;;;;6.53;6.03;;;22.10;29.90;;;;;;6303529;28;20250;-62
2021/03/12 13:45:53;;;;;;;7.47;6.80;;;22.00;30.70;;;;;;6303634;28;20303;-62
2021/03/12 13:48:55;;;;;;;10.10;6.40;;;22.00;30.30;;;;;;6303421;28;20219;-62
2021/03/12 13:51:58;;;;;;;11.17;8.20;;;21.40;30.90;;;;;;6292904;28;20223;-61
2021/03/12 13:55:00;;;;;;;7.90;7.10;;;20.60;32.00;;;;;;6278153;28;20690;-63
2021/03/12 13:58:07;;;;;;;8.03;7.33;;;20.00;33.00;;;;;;6278595;28;20223;-62
2021/03/12 14:01:10;;;;;;;8.17;7.33;;;19.50;34.00;;;;;;6278766;28;20188;-62
2021/03/12 14:04:15;;;;;;;7.17;6.47;;;18.70;34.80;;;;;;6278240;28;20207;-63
2021/03/12 14:07:18;;;;;;;9.23;6.53;;;17.80;36.10;;;;;;6278236;28;20689;-63
2021/03/12 14:10:20;;;;;;;7.80;6.67;;;17.50;36.80;;;;;;6278362;28;20470;-63
2021/03/12 14:13:22;;;;;;;9.47;7.67;;;17.50;37.10;;;;;;6277807;28;20458;-63
2021/03/12 14:16:26;;;;;;;6.63;5.93;;;17.40;37.00;;;;;;6278267;28;20470;-63
2021/03/12 14:19:29;;;;;;;6.67;5.47;;;17.00;38.70;;;;;;6277929;28;20832;-63
2021/03/12 14:22:31;;;;;;;6.00;5.40;;;16.90;38.60;;;;;;6290552;28;20533;-63
2021/03/12 14:25:45;;;;;;;5.80;5.30;;;16.90;37.80;;;;;;6302967;28;20630;-63
2021/03/12 14:28:48;;;;;;;6.23;5.63;;;16.90;38.00;;;;;;6302815;28;20977;-62
2021/03/12 14:31:51;;;;;;;6.63;6.03;;;17.00;38.00;;;;;;6302757;28;20464;-61
2021/03/12 14:34:54;;;;;;;5.50;5.00;;;16.80;38.20;;;;;;6302342;28;20788;-62
2021/03/12 14:37:56;;;;;;;5.90;5.30;;;16.90;38.50;;;;;;6302757;28;20522;-62
2021/03/12 14:40:58;;;;;;;7.77;5.60;;;16.80;38.40;;;;;;6302122;28;20492;-62
2021/03/12 14:44:00;;;;;;;5.70;4.70;;;16.40;39.30;;;;;;6302866;28;20461;-61
2021/03/12 14:47:04;;;;;;;7.20;5.83;;;16.40;39.20;;;;;;6301881;28;20544;-61
2021/03/12 14:50:08;;;;;;;5.40;4.90;;;16.20;39.60;;;;;;6302472;28;20928;-62
2021/03/12 14:53:27;;;;;;;5.73;4.90;;;15.70;39.90;;;;;;6279623;28;20485;-62
2021/03/12 14:56:30;;;;;;;10.87;4.80;;;15.80;40.30;;;;;;6277274;28;20496;-63
2021/03/12 14:59:33;;;;;;;6.80;6.17;;;15.50;40.60;;;;;;6277479;28;20524;-62
2021/03/12 15:02:36;;;;;;;9.27;6.33;;;15.40;42.80;;;;;;6277579;28;20474;-61
2021/03/12 15:05:44;;;;;;;7.90;6.07;;;15.10;44.00;;;;;;6276608;28;20544;-62
2021/03/12 15:08:46;;;;;;;7.50;6.73;;;14.90;44.50;;;;;;6276952;28;20557;-62
2021/03/12 15:11:49;;;;;;;11.03;6.97;;;14.80;44.80;;;;;;6276667;28;20954;-62
2021/03/12 15:14:53;;;;;;;5.60;5.10;;;14.80;44.60;;;;;;6276450;28;20806;-63
2021/03/12 15:17:57;;;;;;;4.63;3.97;;;14.70;45.10;;;;;;6276672;28;20485;-64
2021/03/12 15:21:02;;;;;;;4.00;3.30;;;14.50;45.30;;;;;;6276242;28;20462;-62
2021/03/12 15:24:08;;;;;;;2.83;2.50;;;14.10;45.70;;;;;;6301281;28;20481;-63
2021/03/12 15:27:10;;;;;;;3.10;2.00;;;13.90;46.00;;;;;;6300923;28;20466;-64
2021/03/12 15:30:13;;;;;;;3.70;2.20;;;13.70;46.60;;;;;;6301559;28;20473;-63
2021/03/12 15:33:16;;;;;;;2.63;2.43;;;13.50;46.90;;;;;;6301380;28;20611;-62
2021/03/12 15:36:20;;;;;;;2.40;2.20;;;13.50;47.30;;;;;;6300890;28;20474;-62
2021/03/12 15:39:23;;;;;;;2.60;2.40;;;13.40;47.20;;;;;;6301115;28;20462;-64
2021/03/12 15:42:25;;;;;;;2.50;2.30;;;13.40;47.60;;;;;;6300835;28;20933;-64
2021/03/12 15:45:27;;;;;;;2.80;2.47;;;13.40;47.60;;;;;;6301115;28;20483;-62
2021/03/12 15:48:30;;;;;;;3.00;2.03;;;13.40;48.00;;;;;;6300678;28;20484;-62
2021/03/12 15:51:33;;;;;;;3.10;2.80;;;13.30;48.40;;;;;;6294146;28;20463;-61